Hozan Maru — JJ4010 — position and weather

sailwx.info

Track history (hours):
 
Tides and Currents Weather Stations Pressure Air Temp Water Temp Dewpoint Dewpoint Depression Visibility Wind Speed Wind Dir Waves Ship Positions

Hozan Maru

Last reported at 2015-Apr-18 08:33 UTC. Time now 2015-Apr-19 08:00 UTC.
Position N 34°39' E 135°25'.

Length 38 m; draft 3.6 m.

Type: Tug. MMSI: 431401501.

Date/timePositionNaut miles runAvg speedWind from/ knotsBaromVisibWave heightAir tempDewpointWater temp
2015-Apr-18 08:33N 34°39' E 135°25'7 6.7
2015-Apr-18 07:30N 34°32' E 135°24'7 3.7
2015-Apr-18 05:33N 34°39' E 135°25'6 6.1
2015-Apr-18 04:33N 34°40' E 135°18'0 0.2
2015-Apr-18 03:33N 34°40' E 135°18'0 0.2
2015-Apr-18 02:33N 34°40' E 135°18'0 0.1
2015-Apr-18 01:33N 34°40' E 135°18'0 0.1
2015-Apr-18 00:33N 34°40' E 135°18'0 0.1
2015-Apr-17 23:33N 34°40' E 135°18'0 0.1
2015-Apr-17 22:33N 34°40' E 135°18'0 0.1
2015-Apr-17 21:33N 34°40' E 135°18'5 5.4
2015-Apr-17 20:33N 34°39' E 135°24'2 0.2
2015-Apr-17 10:33N 34°40' E 135°22'4 3.8
2015-Apr-17 09:32N 34°40' E 135°18'0 0.2
2015-Apr-17 08:33N 34°40' E 135°18'0 0.1
2015-Apr-17 07:33N 34°40' E 135°18'0 0.0
2015-Apr-17 06:34N 34°40' E 135°18'0 0.2
2015-Apr-17 05:33N 34°40' E 135°17'1 0.7
2015-Apr-17 04:33N 34°40' E 135°18'6 6.4
2015-Apr-17 03:33N 34°39' E 135°26'0 0.0
2015-Apr-17 02:33N 34°39' E 135°26'0 0.0
2015-Apr-17 01:33N 34°39' E 135°26'0 0.0
2015-Apr-16 03:27N 34°39' E 135°26'7 7.6
2015-Apr-16 02:33N 34°40' E 135°18'0 0.1
2015-Apr-16 01:33N 34°40' E 135°18'0 0.1
2015-Apr-16 00:33N 34°40' E 135°18'0 0.1
2015-Apr-15 23:34N 34°40' E 135°18'0 0.1
2015-Apr-15 22:33N 34°40' E 135°18'0 0.1
2015-Apr-15 21:34N 34°40' E 135°18'5 5.5
2015-Apr-15 20:34N 34°39' E 135°24'2 0.2
2015-Apr-15 10:31N 34°40' E 135°26'9 7.6
2015-Apr-15 09:16N 34°31' E 135°23'0 0.2
2015-Apr-15 08:32N 34°31' E 135°23'0 0.2
2015-Apr-15 07:18N 34°31' E 135°23'1 1.0
2015-Apr-15 06:33N 34°31' E 135°24'0 0.0
2015-Apr-15 05:32N 34°31' E 135°24'1 0.6
2015-Apr-15 04:17N 34°31' E 135°23'1 0.7
2015-Apr-15 03:33N 34°32' E 135°23'1 0.2
2015-Apr-15 01:08N 34°31' E 135°23'0 0.0
2015-Apr-15 00:28N 34°31' E 135°23'2 1.7
2015-Apr-14 23:33N 34°33' E 135°23'2 1.9
2015-Apr-14 22:32N 34°31' E 135°24'3 3.5
2015-Apr-14 21:33N 34°35' E 135°23'5 0.3
2015-Apr-14 06:33N 34°39' E 135°26'1 1.3
2015-Apr-14 05:33N 34°38' E 135°26'5 5.1
2015-Apr-14 04:33N 34°33' E 135°27'0 0.0
2015-Apr-14 03:33N 34°33' E 135°27'3 3.0
2015-Apr-14 02:26N 34°31' E 135°23'2 1.9
2015-Apr-14 01:33N 34°33' E 135°23'2 1.6
2015-Apr-14 00:29N 34°31' E 135°23'9 9.8
2015-Apr-13 23:33N 34°40' E 135°26'0 0.0
2015-Apr-13 10:21N 34°40' E 135°26'1012.7
2015-Apr-13 09:33N 34°38' E 135°14'1312.7
2015-Apr-13 08:32N 34°38' E 134°58'9 1.0
2015-Apr-12 23:26N 34°40' E 134°48'2 0.1
2015-Apr-12 06:29N 34°40' E 134°50'1111.7
2015-Apr-12 05:33N 34°37' E 135°03'1313.4
2015-Apr-12 04:33N 34°39' E 135°19'6 6.2
2015-Apr-12 03:33N 34°38' E 135°26'2 0.1
2015-Apr-11 05:33N 34°39' E 135°24'3 2.9
2015-Apr-11 04:33N 34°36' E 135°24'0 0.0
2015-Apr-11 03:33N 34°36' E 135°24'0 0.0
2015-Apr-11 02:33N 34°36' E 135°24'0 0.0
2015-Apr-11 01:33N 34°36' E 135°24'0 0.0
2015-Apr-11 00:33N 34°36' E 135°24'0 0.0
2015-Apr-10 23:33N 34°36' E 135°24'5 4.8
2015-Apr-10 22:27N 34°31' E 135°23'3 2.7
2015-Apr-10 21:31N 34°33' E 135°22'6 0.3
2015-Apr-10 03:33N 34°38' E 135°27'3 2.6
2015-Apr-10 02:33N 34°40' E 135°27'2 0.1
2015-Apr-09 10:32N 34°39' E 135°26'2 2.0
2015-Apr-09 09:33N 34°38' E 135°24'1 0.6
2015-Apr-09 08:33N 34°38' E 135°25'0 0.0
2015-Apr-09 07:33N 34°38' E 135°25'1 0.8
2015-Apr-09 06:33N 34°38' E 135°24'2 1.9
2015-Apr-09 05:29N 34°38' E 135°26'  
Track history (hours):
 
Tides and Currents Weather Stations Pressure Air Temp Water Temp Dewpoint Dewpoint Depression Visibility Wind Speed Wind Dir Waves Ship Positions

Hozan Maru

Last reported at 2015-Apr-18 08:33 UTC. Time now 2015-Apr-19 08:00 UTC.
Position N 34°39' E 135°25'.

Length 38 m; draft 3.6 m.

Type: Tug. MMSI: 431401501.

Date/timePositionNaut miles runAvg speedWind from/ knotsBaromVisibWave heightAir tempDewpointWater temp
2015-Apr-18 08:33N 34°39' E 135°25'7 6.7
2015-Apr-18 07:30N 34°32' E 135°24'7 3.7
2015-Apr-18 05:33N 34°39' E 135°25'6 6.1
2015-Apr-18 04:33N 34°40' E 135°18'0 0.2
2015-Apr-18 03:33N 34°40' E 135°18'0 0.2
2015-Apr-18 02:33N 34°40' E 135°18'0 0.1
2015-Apr-18 01:33N 34°40' E 135°18'0 0.1
2015-Apr-18 00:33N 34°40' E 135°18'0 0.1
2015-Apr-17 23:33N 34°40' E 135°18'0 0.1
2015-Apr-17 22:33N 34°40' E 135°18'0 0.1
2015-Apr-17 21:33N 34°40' E 135°18'5 5.4
2015-Apr-17 20:33N 34°39' E 135°24'2 0.2
2015-Apr-17 10:33N 34°40' E 135°22'4 3.8
2015-Apr-17 09:32N 34°40' E 135°18'0 0.2
2015-Apr-17 08:33N 34°40' E 135°18'0 0.1
2015-Apr-17 07:33N 34°40' E 135°18'0 0.0
2015-Apr-17 06:34N 34°40' E 135°18'0 0.2
2015-Apr-17 05:33N 34°40' E 135°17'1 0.7
2015-Apr-17 04:33N 34°40' E 135°18'6 6.4
2015-Apr-17 03:33N 34°39' E 135°26'0 0.0
2015-Apr-17 02:33N 34°39' E 135°26'0 0.0
2015-Apr-17 01:33N 34°39' E 135°26'0 0.0
2015-Apr-16 03:27N 34°39' E 135°26'7 7.6
2015-Apr-16 02:33N 34°40' E 135°18'0 0.1
2015-Apr-16 01:33N 34°40' E 135°18'0 0.1
2015-Apr-16 00:33N 34°40' E 135°18'0 0.1
2015-Apr-15 23:34N 34°40' E 135°18'0 0.1
2015-Apr-15 22:33N 34°40' E 135°18'0 0.1
2015-Apr-15 21:34N 34°40' E 135°18'5 5.5
2015-Apr-15 20:34N 34°39' E 135°24'2 0.2
2015-Apr-15 10:31N 34°40' E 135°26'9 7.6
2015-Apr-15 09:16N 34°31' E 135°23'0 0.2
2015-Apr-15 08:32N 34°31' E 135°23'0 0.2
2015-Apr-15 07:18N 34°31' E 135°23'1 1.0
2015-Apr-15 06:33N 34°31' E 135°24'0 0.0
2015-Apr-15 05:32N 34°31' E 135°24'1 0.6
2015-Apr-15 04:17N 34°31' E 135°23'1 0.7
2015-Apr-15 03:33N 34°32' E 135°23'1 0.2
2015-Apr-15 01:08N 34°31' E 135°23'0 0.0
2015-Apr-15 00:28N 34°31' E 135°23'2 1.7
2015-Apr-14 23:33N 34°33' E 135°23'2 1.9
2015-Apr-14 22:32N 34°31' E 135°24'3 3.5
2015-Apr-14 21:33N 34°35' E 135°23'5 0.3
2015-Apr-14 06:33N 34°39' E 135°26'1 1.3
2015-Apr-14 05:33N 34°38' E 135°26'5 5.1
2015-Apr-14 04:33N 34°33' E 135°27'0 0.0
2015-Apr-14 03:33N 34°33' E 135°27'3 3.0
2015-Apr-14 02:26N 34°31' E 135°23'2 1.9
2015-Apr-14 01:33N 34°33' E 135°23'2 1.6
2015-Apr-14 00:29N 34°31' E 135°23'9 9.8
2015-Apr-13 23:33N 34°40' E 135°26'0 0.0
2015-Apr-13 10:21N 34°40' E 135°26'1012.7
2015-Apr-13 09:33N 34°38' E 135°14'1312.7
2015-Apr-13 08:32N 34°38' E 134°58'9 1.0
2015-Apr-12 23:26N 34°40' E 134°48'2 0.1
2015-Apr-12 06:29N 34°40' E 134°50'1111.7
2015-Apr-12 05:33N 34°37' E 135°03'1313.4
2015-Apr-12 04:33N 34°39' E 135°19'6 6.2
2015-Apr-12 03:33N 34°38' E 135°26'2 0.1
2015-Apr-11 05:33N 34°39' E 135°24'3 2.9
2015-Apr-11 04:33N 34°36' E 135°24'0 0.0
2015-Apr-11 03:33N 34°36' E 135°24'0 0.0
2015-Apr-11 02:33N 34°36' E 135°24'0 0.0
2015-Apr-11 01:33N 34°36' E 135°24'0 0.0
2015-Apr-11 00:33N 34°36' E 135°24'0 0.0
2015-Apr-10 23:33N 34°36' E 135°24'5 4.8
2015-Apr-10 22:27N 34°31' E 135°23'3 2.7
2015-Apr-10 21:31N 34°33' E 135°22'6 0.3
2015-Apr-10 03:33N 34°38' E 135°27'3 2.6
2015-Apr-10 02:33N 34°40' E 135°27'2 0.1
2015-Apr-09 10:32N 34°39' E 135°26'2 2.0
2015-Apr-09 09:33N 34°38' E 135°24'1 0.6
2015-Apr-09 08:33N 34°38' E 135°25'0 0.0
2015-Apr-09 07:33N 34°38' E 135°25'1 0.8
2015-Apr-09 06:33N 34°38' E 135°24'2 1.9
2015-Apr-09 05:29N 34°38' E 135°26'  

Dump ship's entire track history